sensor_id;sensor_type;location;lat;lon;timestamp;P1;durP1;ratioP1;P2;durP2;ratioP2
68479;SDS011;55469;48.934;12.050;2023-10-31T00:01:51;2.38;;;2.00;;
68479;SDS011;55469;48.934;12.050;2023-10-31T00:04:17;2.20;;;1.95;;
68479;SDS011;55469;48.934;12.050;2023-10-31T00:06:42;2.60;;;2.40;;
68479;SDS011;55469;48.934;12.050;2023-10-31T00:09:08;2.88;;;2.08;;
68479;SDS011;55469;48.934;12.050;2023-10-31T00:11:35;2.25;;;1.90;;
68479;SDS011;55469;48.934;12.050;2023-10-31T00:14:02;2.42;;;1.80;;
68479;SDS011;55469;48.934;12.050;2023-10-31T00:16:28;2.70;;;2.00;;
68479;SDS011;55469;48.934;12.050;2023-10-31T00:18:54;2.60;;;2.10;;
68479;SDS011;55469;48.934;12.050;2023-10-31T00:21:19;2.55;;;2.03;;
68479;SDS011;55469;48.934;12.050;2023-10-31T00:23:46;3.00;;;2.15;;
68479;SDS011;55469;48.934;12.050;2023-10-31T00:26:13;2.30;;;2.08;;
68479;SDS011;55469;48.934;12.050;2023-10-31T00:28:39;2.17;;;1.92;;
68479;SDS011;55469;48.934;12.050;2023-10-31T00:31:05;2.20;;;2.00;;
68479;SDS011;55469;48.934;12.050;2023-10-31T00:33:33;2.28;;;2.08;;
68479;SDS011;55469;48.934;12.050;2023-10-31T00:36:02;2.20;;;2.00;;
68479;SDS011;55469;48.934;12.050;2023-10-31T00:38:28;4.32;;;2.20;;
68479;SDS011;55469;48.934;12.050;2023-10-31T00:40:54;3.28;;;2.15;;
68479;SDS011;55469;48.934;12.050;2023-10-31T00:43:20;2.65;;;2.13;;
68479;SDS011;55469;48.934;12.050;2023-10-31T00:45:46;2.20;;;2.00;;
68479;SDS011;55469;48.934;12.050;2023-10-31T00:48:11;2.40;;;1.92;;
68479;SDS011;55469;48.934;12.050;2023-10-31T00:50:37;2.67;;;2.00;;
68479;SDS011;55469;48.934;12.050;2023-10-31T00:53:03;2.22;;;1.88;;
68479;SDS011;55469;48.934;12.050;2023-10-31T00:55:28;2.28;;;1.92;;
68479;SDS011;55469;48.934;12.050;2023-10-31T00:57:54;2.13;;;1.75;;
68479;SDS011;55469;48.934;12.050;2023-10-31T01:00:20;2.08;;;1.80;;
68479;SDS011;55469;48.934;12.050;2023-10-31T01:02:46;2.10;;;1.80;;
68479;SDS011;55469;48.934;12.050;2023-10-31T01:05:11;2.28;;;1.70;;
68479;SDS011;55469;48.934;12.050;2023-10-31T01:07:37;2.42;;;2.03;;
68479;SDS011;55469;48.934;12.050;2023-10-31T01:10:03;1.85;;;1.67;;
68479;SDS011;55469;48.934;12.050;2023-10-31T01:12:30;2.10;;;1.70;;
68479;SDS011;55469;48.934;12.050;2023-10-31T01:14:56;2.28;;;1.90;;
68479;SDS011;55469;48.934;12.050;2023-10-31T01:17:22;2.63;;;1.63;;
68479;SDS011;55469;48.934;12.050;2023-10-31T01:19:48;2.33;;;1.85;;
68479;SDS011;55469;48.934;12.050;2023-10-31T01:22:13;1.70;;;1.60;;
68479;SDS011;55469;48.934;12.050;2023-10-31T01:24:39;2.63;;;1.85;;
68479;SDS011;55469;48.934;12.050;2023-10-31T01:27:05;2.08;;;1.60;;
68479;SDS011;55469;48.934;12.050;2023-10-31T01:29:31;1.58;;;1.48;;
68479;SDS011;55469;48.934;12.050;2023-10-31T01:31:57;1.98;;;1.58;;
68479;SDS011;55469;48.934;12.050;2023-10-31T01:34:23;1.98;;;1.60;;
68479;SDS011;55469;48.934;12.050;2023-10-31T01:36:48;3.25;;;1.75;;
68479;SDS011;55469;48.934;12.050;2023-10-31T01:39:14;1.50;;;1.40;;
68479;SDS011;55469;48.934;12.050;2023-10-31T01:41:43;1.77;;;1.67;;
68479;SDS011;55469;48.934;12.050;2023-10-31T01:44:09;1.70;;;1.60;;
68479;SDS011;55469;48.934;12.050;2023-10-31T01:46:35;1.83;;;1.65;;
68479;SDS011;55469;48.934;12.050;2023-10-31T01:49:02;1.67;;;1.58;;
68479;SDS011;55469;48.934;12.050;2023-10-31T01:51:28;1.58;;;1.48;;
68479;SDS011;55469;48.934;12.050;2023-10-31T01:53:54;1.67;;;1.58;;
68479;SDS011;55469;48.934;12.050;2023-10-31T01:56:21;2.92;;;1.50;;
68479;SDS011;55469;48.934;12.050;2023-10-31T01:58:48;1.50;;;1.40;;
68479;SDS011;55469;48.934;12.050;2023-10-31T02:01:15;2.08;;;1.60;;
68479;SDS011;55469;48.934;12.050;2023-10-31T02:03:41;1.50;;;1.40;;
68479;SDS011;55469;48.934;12.050;2023-10-31T02:06:07;1.60;;;1.50;;
68479;SDS011;55469;48.934;12.050;2023-10-31T02:08:33;1.30;;;1.15;;
68479;SDS011;55469;48.934;12.050;2023-10-31T02:10:59;1.65;;;1.30;;
68479;SDS011;55469;48.934;12.050;2023-10-31T02:13:25;1.52;;;1.42;;
68479;SDS011;55469;48.934;12.050;2023-10-31T02:15:51;1.42;;;1.30;;
68479;SDS011;55469;48.934;12.050;2023-10-31T02:18:17;1.40;;;1.30;;
68479;SDS011;55469;48.934;12.050;2023-10-31T02:20:43;2.10;;;1.55;;
68479;SDS011;55469;48.934;12.050;2023-10-31T02:23:09;1.40;;;1.30;;
68479;SDS011;55469;48.934;12.050;2023-10-31T02:25:35;1.58;;;1.33;;
68479;SDS011;55469;48.934;12.050;2023-10-31T02:28:00;1.50;;;1.40;;
68479;SDS011;55469;48.934;12.050;2023-10-31T02:30:26;1.25;;;1.20;;
68479;SDS011;55469;48.934;12.050;2023-10-31T02:32:52;1.35;;;1.25;;
68479;SDS011;55469;48.934;12.050;2023-10-31T02:35:18;1.45;;;1.30;;
68479;SDS011;55469;48.934;12.050;2023-10-31T02:37:47;1.45;;;1.27;;
68479;SDS011;55469;48.934;12.050;2023-10-31T02:40:14;1.60;;;1.45;;
68479;SDS011;55469;48.934;12.050;2023-10-31T02:42:40;1.95;;;1.20;;
68479;SDS011;55469;48.934;12.050;2023-10-31T02:45:06;1.27;;;1.15;;
68479;SDS011;55469;48.934;12.050;2023-10-31T02:47:32;1.42;;;1.33;;
68479;SDS011;55469;48.934;12.050;2023-10-31T02:49:58;1.67;;;1.15;;
68479;SDS011;55469;48.934;12.050;2023-10-31T02:52:24;1.27;;;1.10;;
68479;SDS011;55469;48.934;12.050;2023-10-31T02:54:50;1.20;;;1.10;;
68479;SDS011;55469;48.934;12.050;2023-10-31T02:57:16;1.20;;;1.10;;
68479;SDS011;55469;48.934;12.050;2023-10-31T02:59:42;1.20;;;1.10;;
68479;SDS011;55469;48.934;12.050;2023-10-31T03:02:08;1.08;;;1.00;;
68479;SDS011;55469;48.934;12.050;2023-10-31T03:04:33;1.88;;;1.10;;
68479;SDS011;55469;48.934;12.050;2023-10-31T03:06:59;1.00;;;1.00;;
68479;SDS011;55469;48.934;12.050;2023-10-31T03:09:25;1.27;;;1.17;;
68479;SDS011;55469;48.934;12.050;2023-10-31T03:11:51;1.20;;;1.10;;
68479;SDS011;55469;48.934;12.050;2023-10-31T03:14:17;1.20;;;1.10;;
68479;SDS011;55469;48.934;12.050;2023-10-31T03:16:43;1.02;;;1.00;;
68479;SDS011;55469;48.934;12.050;2023-10-31T03:19:09;1.00;;;1.00;;
68479;SDS011;55469;48.934;12.050;2023-10-31T03:21:35;1.17;;;1.08;;
68479;SDS011;55469;48.934;12.050;2023-10-31T03:24:00;0.95;;;0.85;;
68479;SDS011;55469;48.934;12.050;2023-10-31T03:26:26;0.90;;;0.90;;
68479;SDS011;55469;48.934;12.050;2023-10-31T03:28:52;0.95;;;0.85;;
68479;SDS011;55469;48.934;12.050;2023-10-31T03:31:22;1.10;;;1.00;;
68479;SDS011;55469;48.934;12.050;2023-10-31T03:33:48;0.90;;;0.90;;
68479;SDS011;55469;48.934;12.050;2023-10-31T03:36:14;1.00;;;0.90;;
68479;SDS011;55469;48.934;12.050;2023-10-31T03:38:40;0.90;;;0.90;;
68479;SDS011;55469;48.934;12.050;2023-10-31T03:41:06;0.90;;;0.90;;
68479;SDS011;55469;48.934;12.050;2023-10-31T03:43:32;1.00;;;1.00;;
68479;SDS011;55469;48.934;12.050;2023-10-31T03:45:58;0.90;;;0.90;;
68479;SDS011;55469;48.934;12.050;2023-10-31T03:48:24;1.15;;;0.98;;
68479;SDS011;55469;48.934;12.050;2023-10-31T03:50:49;1.10;;;1.00;;
68479;SDS011;55469;48.934;12.050;2023-10-31T03:53:16;1.02;;;0.93;;
68479;SDS011;55469;48.934;12.050;2023-10-31T03:55:42;1.35;;;0.90;;
68479;SDS011;55469;48.934;12.050;2023-10-31T03:58:09;1.00;;;1.00;;
68479;SDS011;55469;48.934;12.050;2023-10-31T04:00:34;0.80;;;0.80;;
68479;SDS011;55469;48.934;12.050;2023-10-31T04:03:00;0.85;;;0.85;;
68479;SDS011;55469;48.934;12.050;2023-10-31T04:05:26;0.88;;;0.85;;
68479;SDS011;55469;48.934;12.050;2023-10-31T04:07:52;1.15;;;1.00;;
68479;SDS011;55469;48.934;12.050;2023-10-31T04:10:18;0.82;;;0.80;;
68479;SDS011;55469;48.934;12.050;2023-10-31T04:12:44;1.00;;;0.93;;
68479;SDS011;55469;48.934;12.050;2023-10-31T04:15:10;1.00;;;0.90;;
68479;SDS011;55469;48.934;12.050;2023-10-31T04:17:36;0.77;;;0.77;;
68479;SDS011;55469;48.934;12.050;2023-10-31T04:20:03;0.82;;;0.82;;
68479;SDS011;55469;48.934;12.050;2023-10-31T04:22:29;1.00;;;0.90;;
68479;SDS011;55469;48.934;12.050;2023-10-31T04:24:55;0.90;;;0.90;;
68479;SDS011;55469;48.934;12.050;2023-10-31T04:27:21;0.77;;;0.77;;
68479;SDS011;55469;48.934;12.050;2023-10-31T04:29:47;0.75;;;0.75;;
68479;SDS011;55469;48.934;12.050;2023-10-31T04:32:13;0.80;;;0.70;;
68479;SDS011;55469;48.934;12.050;2023-10-31T04:34:39;0.75;;;0.75;;
68479;SDS011;55469;48.934;12.050;2023-10-31T04:37:04;0.65;;;0.65;;
68479;SDS011;55469;48.934;12.050;2023-10-31T04:39:30;0.70;;;0.70;;
68479;SDS011;55469;48.934;12.050;2023-10-31T04:41:56;1.13;;;0.60;;
68479;SDS011;55469;48.934;12.050;2023-10-31T04:44:22;0.70;;;0.70;;
68479;SDS011;55469;48.934;12.050;2023-10-31T04:46:48;0.50;;;0.50;;
68479;SDS011;55469;48.934;12.050;2023-10-31T04:49:13;1.65;;;0.65;;
68479;SDS011;55469;48.934;12.050;2023-10-31T04:51:41;0.65;;;0.65;;
68479;SDS011;55469;48.934;12.050;2023-10-31T04:54:07;0.60;;;0.60;;
68479;SDS011;55469;48.934;12.050;2023-10-31T04:56:33;0.50;;;0.50;;
68479;SDS011;55469;48.934;12.050;2023-10-31T04:58:59;0.63;;;0.63;;
68479;SDS011;55469;48.934;12.050;2023-10-31T05:01:24;0.65;;;0.65;;
68479;SDS011;55469;48.934;12.050;2023-10-31T05:03:50;0.60;;;0.60;;
68479;SDS011;55469;48.934;12.050;2023-10-31T05:06:20;0.60;;;0.60;;
68479;SDS011;55469;48.934;12.050;2023-10-31T05:08:47;0.70;;;0.65;;
68479;SDS011;55469;48.934;12.050;2023-10-31T05:11:16;0.68;;;0.60;;
68479;SDS011;55469;48.934;12.050;2023-10-31T05:13:43;0.50;;;0.50;;
68479;SDS011;55469;48.934;12.050;2023-10-31T05:16:10;0.50;;;0.50;;
68479;SDS011;55469;48.934;12.050;2023-10-31T05:18:37;0.50;;;0.50;;
68479;SDS011;55469;48.934;12.050;2023-10-31T05:21:04;0.60;;;0.60;;
68479;SDS011;55469;48.934;12.050;2023-10-31T05:23:30;0.40;;;0.40;;
68479;SDS011;55469;48.934;12.050;2023-10-31T05:25:56;0.65;;;0.60;;
68479;SDS011;55469;48.934;12.050;2023-10-31T05:28:22;0.50;;;0.50;;
68479;SDS011;55469;48.934;12.050;2023-10-31T05:30:48;0.50;;;0.50;;
68479;SDS011;55469;48.934;12.050;2023-10-31T05:33:17;0.77;;;0.60;;
68479;SDS011;55469;48.934;12.050;2023-10-31T05:35:43;0.60;;;0.60;;
68479;SDS011;55469;48.934;12.050;2023-10-31T05:38:08;1.48;;;0.50;;
68479;SDS011;55469;48.934;12.050;2023-10-31T05:40:34;0.40;;;0.40;;
68479;SDS011;55469;48.934;12.050;2023-10-31T05:43:00;0.50;;;0.50;;
68479;SDS011;55469;48.934;12.050;2023-10-31T05:45:27;0.60;;;0.60;;
68479;SDS011;55469;48.934;12.050;2023-10-31T05:47:53;0.50;;;0.50;;
68479;SDS011;55469;48.934;12.050;2023-10-31T05:50:19;0.50;;;0.50;;
68479;SDS011;55469;48.934;12.050;2023-10-31T05:52:46;0.73;;;0.60;;
68479;SDS011;55469;48.934;12.050;2023-10-31T05:55:12;0.85;;;0.50;;
68479;SDS011;55469;48.934;12.050;2023-10-31T05:57:38;0.60;;;0.60;;
68479;SDS011;55469;48.934;12.050;2023-10-31T06:00:04;0.47;;;0.47;;
68479;SDS011;55469;48.934;12.050;2023-10-31T06:02:32;0.60;;;0.60;;
68479;SDS011;55469;48.934;12.050;2023-10-31T06:04:57;0.40;;;0.40;;
68479;SDS011;55469;48.934;12.050;2023-10-31T06:07:23;0.40;;;0.40;;
68479;SDS011;55469;48.934;12.050;2023-10-31T06:09:49;0.80;;;0.55;;
68479;SDS011;55469;48.934;12.050;2023-10-31T06:12:14;0.77;;;0.50;;
68479;SDS011;55469;48.934;12.050;2023-10-31T06:14:40;0.40;;;0.40;;
68479;SDS011;55469;48.934;12.050;2023-10-31T06:17:06;0.50;;;0.50;;
68479;SDS011;55469;48.934;12.050;2023-10-31T06:19:38;1.15;;;0.60;;
68479;SDS011;55469;48.934;12.050;2023-10-31T06:22:10;1.48;;;0.52;;
68479;SDS011;55469;48.934;12.050;2023-10-31T06:24:36;1.38;;;0.68;;
68479;SDS011;55469;48.934;12.050;2023-10-31T06:27:02;0.50;;;0.50;;
68479;SDS011;55469;48.934;12.050;2023-10-31T06:29:28;0.68;;;0.50;;
68479;SDS011;55469;48.934;12.050;2023-10-31T06:31:54;0.55;;;0.50;;
68479;SDS011;55469;48.934;12.050;2023-10-31T06:34:19;0.75;;;0.50;;
68479;SDS011;55469;48.934;12.050;2023-10-31T06:36:45;0.50;;;0.50;;
68479;SDS011;55469;48.934;12.050;2023-10-31T06:39:11;0.50;;;0.50;;
68479;SDS011;55469;48.934;12.050;2023-10-31T06:41:36;0.52;;;0.52;;
68479;SDS011;55469;48.934;12.050;2023-10-31T06:44:02;0.50;;;0.50;;
68479;SDS011;55469;48.934;12.050;2023-10-31T06:46:28;0.70;;;0.60;;
68479;SDS011;55469;48.934;12.050;2023-10-31T06:48:54;0.50;;;0.50;;
68479;SDS011;55469;48.934;12.050;2023-10-31T06:51:20;0.40;;;0.40;;
68479;SDS011;55469;48.934;12.050;2023-10-31T06:53:45;0.40;;;0.40;;
68479;SDS011;55469;48.934;12.050;2023-10-31T06:56:11;0.60;;;0.60;;
68479;SDS011;55469;48.934;12.050;2023-10-31T06:58:37;0.65;;;0.40;;
68479;SDS011;55469;48.934;12.050;2023-10-31T07:01:03;0.40;;;0.40;;
68479;SDS011;55469;48.934;12.050;2023-10-31T07:03:28;0.50;;;0.50;;
68479;SDS011;55469;48.934;12.050;2023-10-31T07:05:54;0.40;;;0.40;;
68479;SDS011;55469;48.934;12.050;2023-10-31T07:08:21;0.70;;;0.50;;
68479;SDS011;55469;48.934;12.050;2023-10-31T07:10:48;0.50;;;0.50;;
68479;SDS011;55469;48.934;12.050;2023-10-31T07:13:13;0.43;;;0.40;;
68479;SDS011;55469;48.934;12.050;2023-10-31T07:15:39;0.90;;;0.60;;
68479;SDS011;55469;48.934;12.050;2023-10-31T07:18:05;0.82;;;0.50;;
68479;SDS011;55469;48.934;12.050;2023-10-31T07:20:34;0.63;;;0.60;;
68479;SDS011;55469;48.934;12.050;2023-10-31T07:22:59;0.47;;;0.47;;
68479;SDS011;55469;48.934;12.050;2023-10-31T07:25:25;0.65;;;0.50;;
68479;SDS011;55469;48.934;12.050;2023-10-31T07:27:51;0.40;;;0.40;;
68479;SDS011;55469;48.934;12.050;2023-10-31T07:30:17;0.57;;;0.57;;
68479;SDS011;55469;48.934;12.050;2023-10-31T07:32:42;1.10;;;0.40;;
68479;SDS011;55469;48.934;12.050;2023-10-31T07:35:08;0.50;;;0.50;;
68479;SDS011;55469;48.934;12.050;2023-10-31T07:37:34;0.70;;;0.55;;
68479;SDS011;55469;48.934;12.050;2023-10-31T07:40:00;0.60;;;0.60;;
68479;SDS011;55469;48.934;12.050;2023-10-31T07:42:26;0.52;;;0.52;;
68479;SDS011;55469;48.934;12.050;2023-10-31T07:44:51;0.55;;;0.55;;
68479;SDS011;55469;48.934;12.050;2023-10-31T07:47:17;0.57;;;0.57;;
68479;SDS011;55469;48.934;12.050;2023-10-31T07:49:43;1.20;;;0.60;;
68479;SDS011;55469;48.934;12.050;2023-10-31T07:52:08;0.40;;;0.40;;
68479;SDS011;55469;48.934;12.050;2023-10-31T07:54:34;1.65;;;0.70;;
68479;SDS011;55469;48.934;12.050;2023-10-31T07:57:00;0.98;;;0.40;;
68479;SDS011;55469;48.934;12.050;2023-10-31T07:59:26;0.63;;;0.63;;
68479;SDS011;55469;48.934;12.050;2023-10-31T08:01:52;0.50;;;0.50;;
68479;SDS011;55469;48.934;12.050;2023-10-31T08:04:18;0.57;;;0.50;;
68479;SDS011;55469;48.934;12.050;2023-10-31T08:06:43;0.60;;;0.60;;
68479;SDS011;55469;48.934;12.050;2023-10-31T08:09:09;0.40;;;0.40;;
68479;SDS011;55469;48.934;12.050;2023-10-31T08:11:35;0.70;;;0.70;;
68479;SDS011;55469;48.934;12.050;2023-10-31T08:14:01;0.60;;;0.40;;
68479;SDS011;55469;48.934;12.050;2023-10-31T08:16:29;0.52;;;0.50;;
68479;SDS011;55469;48.934;12.050;2023-10-31T08:18:55;0.50;;;0.50;;
68479;SDS011;55469;48.934;12.050;2023-10-31T08:21:20;0.50;;;0.50;;
68479;SDS011;55469;48.934;12.050;2023-10-31T08:23:46;0.40;;;0.40;;
68479;SDS011;55469;48.934;12.050;2023-10-31T08:26:12;0.50;;;0.50;;
68479;SDS011;55469;48.934;12.050;2023-10-31T08:28:38;0.40;;;0.40;;
68479;SDS011;55469;48.934;12.050;2023-10-31T08:31:04;0.55;;;0.50;;
68479;SDS011;55469;48.934;12.050;2023-10-31T08:33:30;0.93;;;0.50;;
68479;SDS011;55469;48.934;12.050;2023-10-31T08:35:56;0.40;;;0.40;;
68479;SDS011;55469;48.934;12.050;2023-10-31T08:38:22;0.50;;;0.43;;
68479;SDS011;55469;48.934;12.050;2023-10-31T08:40:48;0.40;;;0.40;;
68479;SDS011;55469;48.934;12.050;2023-10-31T08:43:14;0.50;;;0.50;;
68479;SDS011;55469;48.934;12.050;2023-10-31T08:45:40;0.38;;;0.38;;
68479;SDS011;55469;48.934;12.050;2023-10-31T08:48:05;0.65;;;0.40;;
68479;SDS011;55469;48.934;12.050;2023-10-31T08:50:31;0.57;;;0.57;;
68479;SDS011;55469;48.934;12.050;2023-10-31T08:52:57;1.05;;;0.55;;
68479;SDS011;55469;48.934;12.050;2023-10-31T08:55:22;0.68;;;0.50;;
68479;SDS011;55469;48.934;12.050;2023-10-31T08:57:48;1.60;;;0.40;;
68479;SDS011;55469;48.934;12.050;2023-10-31T09:00:14;0.93;;;0.50;;
68479;SDS011;55469;48.934;12.050;2023-10-31T09:02:40;0.60;;;0.40;;
68479;SDS011;55469;48.934;12.050;2023-10-31T09:05:08;0.40;;;0.40;;
68479;SDS011;55469;48.934;12.050;2023-10-31T09:07:33;0.43;;;0.40;;
68479;SDS011;55469;48.934;12.050;2023-10-31T09:09:59;0.60;;;0.60;;
68479;SDS011;55469;48.934;12.050;2023-10-31T09:12:25;0.50;;;0.50;;
68479;SDS011;55469;48.934;12.050;2023-10-31T09:14:51;0.47;;;0.45;;
68479;SDS011;55469;48.934;12.050;2023-10-31T09:17:17;0.40;;;0.40;;
68479;SDS011;55469;48.934;12.050;2023-10-31T09:19:43;0.77;;;0.70;;
68479;SDS011;55469;48.934;12.050;2023-10-31T09:22:09;0.55;;;0.40;;
68479;SDS011;55469;48.934;12.050;2023-10-31T09:24:35;0.40;;;0.38;;
68479;SDS011;55469;48.934;12.050;2023-10-31T09:27:00;0.47;;;0.47;;
68479;SDS011;55469;48.934;12.050;2023-10-31T09:29:26;0.40;;;0.40;;
68479;SDS011;55469;48.934;12.050;2023-10-31T09:31:52;0.40;;;0.40;;
68479;SDS011;55469;48.934;12.050;2023-10-31T09:34:18;0.85;;;0.60;;
68479;SDS011;55469;48.934;12.050;2023-10-31T09:36:44;0.40;;;0.40;;
68479;SDS011;55469;48.934;12.050;2023-10-31T09:39:10;0.43;;;0.43;;
68479;SDS011;55469;48.934;12.050;2023-10-31T09:41:35;0.80;;;0.40;;
68479;SDS011;55469;48.934;12.050;2023-10-31T09:44:01;0.43;;;0.43;;
68479;SDS011;55469;48.934;12.050;2023-10-31T09:46:30;0.40;;;0.40;;
68479;SDS011;55469;48.934;12.050;2023-10-31T09:48:56;0.40;;;0.40;;
68479;SDS011;55469;48.934;12.050;2023-10-31T09:51:22;0.40;;;0.40;;
68479;SDS011;55469;48.934;12.050;2023-10-31T09:53:48;0.50;;;0.50;;
68479;SDS011;55469;48.934;12.050;2023-10-31T09:56:14;0.80;;;0.70;;
68479;SDS011;55469;48.934;12.050;2023-10-31T09:58:42;0.40;;;0.40;;
68479;SDS011;55469;48.934;12.050;2023-10-31T10:01:08;0.50;;;0.50;;
68479;SDS011;55469;48.934;12.050;2023-10-31T10:03:36;0.40;;;0.40;;
68479;SDS011;55469;48.934;12.050;2023-10-31T10:06:02;0.40;;;0.40;;
68479;SDS011;55469;48.934;12.050;2023-10-31T10:08:28;0.40;;;0.40;;
68479;SDS011;55469;48.934;12.050;2023-10-31T10:10:54;0.40;;;0.40;;
68479;SDS011;55469;48.934;12.050;2023-10-31T10:13:20;0.40;;;0.40;;
68479;SDS011;55469;48.934;12.050;2023-10-31T10:15:46;0.43;;;0.40;;
68479;SDS011;55469;48.934;12.050;2023-10-31T10:18:30;2.03;;;0.53;;
68479;SDS011;55469;48.934;12.050;2023-10-31T10:20:58;1.23;;;0.40;;
68479;SDS011;55469;48.934;12.050;2023-10-31T10:23:28;0.98;;;0.50;;
68479;SDS011;55469;48.934;12.050;2023-10-31T10:25:55;0.40;;;0.40;;
68479;SDS011;55469;48.934;12.050;2023-10-31T10:28:22;0.40;;;0.40;;
68479;SDS011;55469;48.934;12.050;2023-10-31T10:30:52;0.50;;;0.50;;
68479;SDS011;55469;48.934;12.050;2023-10-31T10:33:19;0.30;;;0.30;;
68479;SDS011;55469;48.934;12.050;2023-10-31T10:35:45;0.50;;;0.43;;
68479;SDS011;55469;48.934;12.050;2023-10-31T10:38:12;0.50;;;0.50;;
68479;SDS011;55469;48.934;12.050;2023-10-31T10:40:40;0.65;;;0.60;;
68479;SDS011;55469;48.934;12.050;2023-10-31T10:43:12;0.40;;;0.40;;
68479;SDS011;55469;48.934;12.050;2023-10-31T10:45:46;0.30;;;0.30;;
68479;SDS011;55469;48.934;12.050;2023-10-31T10:48:20;0.32;;;0.32;;
68479;SDS011;55469;48.934;12.050;2023-10-31T10:50:51;0.50;;;0.50;;
68479;SDS011;55469;48.934;12.050;2023-10-31T10:53:23;0.32;;;0.32;;
68479;SDS011;55469;48.934;12.050;2023-10-31T10:55:52;0.50;;;0.50;;
68479;SDS011;55469;48.934;12.050;2023-10-31T10:58:27;0.50;;;0.50;;
68479;SDS011;55469;48.934;12.050;2023-10-31T11:01:13;0.52;;;0.50;;
68479;SDS011;55469;48.934;12.050;2023-10-31T11:03:39;0.40;;;0.40;;
68479;SDS011;55469;48.934;12.050;2023-10-31T11:06:05;0.95;;;0.50;;
68479;SDS011;55469;48.934;12.050;2023-10-31T11:08:32;0.50;;;0.30;;
68479;SDS011;55469;48.934;12.050;2023-10-31T11:10:59;0.50;;;0.50;;
68479;SDS011;55469;48.934;12.050;2023-10-31T11:13:24;0.40;;;0.40;;
68479;SDS011;55469;48.934;12.050;2023-10-31T11:15:52;0.35;;;0.35;;
68479;SDS011;55469;48.934;12.050;2023-10-31T11:18:22;0.75;;;0.40;;
68479;SDS011;55469;48.934;12.050;2023-10-31T11:20:50;0.40;;;0.40;;
68479;SDS011;55469;48.934;12.050;2023-10-31T11:23:16;0.60;;;0.60;;
68479;SDS011;55469;48.934;12.050;2023-10-31T11:25:42;0.40;;;0.40;;
68479;SDS011;55469;48.934;12.050;2023-10-31T11:28:16;0.40;;;0.40;;
68479;SDS011;55469;48.934;12.050;2023-10-31T11:30:43;0.40;;;0.40;;
68479;SDS011;55469;48.934;12.050;2023-10-31T11:33:11;0.70;;;0.43;;
68479;SDS011;55469;48.934;12.050;2023-10-31T11:35:42;0.40;;;0.40;;
68479;SDS011;55469;48.934;12.050;2023-10-31T11:38:11;0.22;;;0.22;;
68479;SDS011;55469;48.934;12.050;2023-10-31T11:40:57;0.47;;;0.40;;
68479;SDS011;55469;48.934;12.050;2023-10-31T11:46:05;0.50;;;0.30;;
68479;SDS011;55469;48.934;12.050;2023-10-31T11:48:45;0.30;;;0.30;;
68479;SDS011;55469;48.934;12.050;2023-10-31T11:51:16;0.30;;;0.30;;
68479;SDS011;55469;48.934;12.050;2023-10-31T11:53:42;0.95;;;0.50;;
68479;SDS011;55469;48.934;12.050;2023-10-31T11:56:09;0.65;;;0.40;;
68479;SDS011;55469;48.934;12.050;2023-10-31T11:58:36;0.50;;;0.40;;
68479;SDS011;55469;48.934;12.050;2023-10-31T12:01:06;1.65;;;0.50;;
68479;SDS011;55469;48.934;12.050;2023-10-31T12:06:04;0.55;;;0.55;;
68479;SDS011;55469;48.934;12.050;2023-10-31T12:11:12;0.50;;;0.50;;
68479;SDS011;55469;48.934;12.050;2023-10-31T12:13:51;1.42;;;0.73;;
68479;SDS011;55469;48.934;12.050;2023-10-31T12:16:29;1.13;;;0.82;;
68479;SDS011;55469;48.934;12.050;2023-10-31T12:18:57;0.73;;;0.45;;
68479;SDS011;55469;48.934;12.050;2023-10-31T12:21:37;0.63;;;0.60;;
68479;SDS011;55469;48.934;12.050;2023-10-31T12:24:15;0.40;;;0.40;;
68479;SDS011;55469;48.934;12.050;2023-10-31T12:26:44;0.93;;;0.50;;
68479;SDS011;55469;48.934;12.050;2023-10-31T12:29:14;1.20;;;0.50;;
68479;SDS011;55469;48.934;12.050;2023-10-31T12:31:49;0.57;;;0.40;;
68479;SDS011;55469;48.934;12.050;2023-10-31T12:34:22;0.90;;;0.50;;
68479;SDS011;55469;48.934;12.050;2023-10-31T12:36:50;0.40;;;0.40;;
68479;SDS011;55469;48.934;12.050;2023-10-31T12:39:18;0.50;;;0.50;;
68479;SDS011;55469;48.934;12.050;2023-10-31T12:41:48;0.95;;;0.40;;
68479;SDS011;55469;48.934;12.050;2023-10-31T12:44:16;0.40;;;0.40;;
68479;SDS011;55469;48.934;12.050;2023-10-31T12:46:48;0.63;;;0.60;;
68479;SDS011;55469;48.934;12.050;2023-10-31T12:49:17;0.60;;;0.40;;
68479;SDS011;55469;48.934;12.050;2023-10-31T12:52:00;0.65;;;0.40;;
68479;SDS011;55469;48.934;12.050;2023-10-31T12:54:29;0.55;;;0.40;;
68479;SDS011;55469;48.934;12.050;2023-10-31T12:57:03;0.80;;;0.55;;
68479;SDS011;55469;48.934;12.050;2023-10-31T12:59:35;0.50;;;0.50;;
68479;SDS011;55469;48.934;12.050;2023-10-31T13:02:05;0.73;;;0.60;;
68479;SDS011;55469;48.934;12.050;2023-10-31T13:04:33;0.35;;;0.35;;
68479;SDS011;55469;48.934;12.050;2023-10-31T13:07:03;0.47;;;0.47;;
68479;SDS011;55469;48.934;12.050;2023-10-31T13:09:31;0.90;;;0.40;;
68479;SDS011;55469;48.934;12.050;2023-10-31T13:11:59;1.13;;;0.50;;
68479;SDS011;55469;48.934;12.050;2023-10-31T13:14:27;0.50;;;0.50;;
68479;SDS011;55469;48.934;12.050;2023-10-31T13:16:52;0.57;;;0.40;;
68479;SDS011;55469;48.934;12.050;2023-10-31T13:19:18;0.50;;;0.50;;
68479;SDS011;55469;48.934;12.050;2023-10-31T13:21:44;0.38;;;0.30;;
68479;SDS011;55469;48.934;12.050;2023-10-31T13:24:10;0.50;;;0.40;;
68479;SDS011;55469;48.934;12.050;2023-10-31T13:26:35;0.40;;;0.40;;
68479;SDS011;55469;48.934;12.050;2023-10-31T13:29:01;0.52;;;0.52;;
68479;SDS011;55469;48.934;12.050;2023-10-31T13:31:27;0.73;;;0.60;;
68479;SDS011;55469;48.934;12.050;2023-10-31T13:33:53;0.30;;;0.30;;
68479;SDS011;55469;48.934;12.050;2023-10-31T13:36:19;0.40;;;0.40;;
68479;SDS011;55469;48.934;12.050;2023-10-31T13:38:46;0.45;;;0.45;;
68479;SDS011;55469;48.934;12.050;2023-10-31T13:41:13;0.47;;;0.47;;
68479;SDS011;55469;48.934;12.050;2023-10-31T13:43:39;0.50;;;0.50;;
68479;SDS011;55469;48.934;12.050;2023-10-31T13:46:04;0.40;;;0.40;;
68479;SDS011;55469;48.934;12.050;2023-10-31T13:48:31;0.52;;;0.45;;
68479;SDS011;55469;48.934;12.050;2023-10-31T13:50:57;0.77;;;0.50;;
68479;SDS011;55469;48.934;12.050;2023-10-31T13:53:22;1.75;;;0.57;;
68479;SDS011;55469;48.934;12.050;2023-10-31T13:55:48;0.40;;;0.40;;
68479;SDS011;55469;48.934;12.050;2023-10-31T13:58:14;0.40;;;0.40;;
68479;SDS011;55469;48.934;12.050;2023-10-31T14:00:40;0.40;;;0.40;;
68479;SDS011;55469;48.934;12.050;2023-10-31T14:03:10;0.73;;;0.47;;
68479;SDS011;55469;48.934;12.050;2023-10-31T14:05:35;0.93;;;0.43;;
68479;SDS011;55469;48.934;12.050;2023-10-31T14:08:02;0.45;;;0.45;;
68479;SDS011;55469;48.934;12.050;2023-10-31T14:10:28;0.40;;;0.40;;
68479;SDS011;55469;48.934;12.050;2023-10-31T14:12:56;0.50;;;0.50;;
68479;SDS011;55469;48.934;12.050;2023-10-31T14:15:22;1.80;;;0.50;;
68479;SDS011;55469;48.934;12.050;2023-10-31T14:17:48;0.40;;;0.40;;
68479;SDS011;55469;48.934;12.050;2023-10-31T14:20:16;0.30;;;0.30;;
68479;SDS011;55469;48.934;12.050;2023-10-31T14:22:46;0.68;;;0.57;;
68479;SDS011;55469;48.934;12.050;2023-10-31T14:25:13;0.50;;;0.50;;
68479;SDS011;55469;48.934;12.050;2023-10-31T14:27:40;0.63;;;0.40;;
68479;SDS011;55469;48.934;12.050;2023-10-31T14:30:08;0.68;;;0.68;;
68479;SDS011;55469;48.934;12.050;2023-10-31T14:32:37;0.80;;;0.45;;
68479;SDS011;55469;48.934;12.050;2023-10-31T14:35:04;1.95;;;0.50;;
68479;SDS011;55469;48.934;12.050;2023-10-31T14:37:31;0.57;;;0.55;;
68479;SDS011;55469;48.934;12.050;2023-10-31T14:39:57;0.68;;;0.52;;